createdAt,value
2022-08-16T00:01:14.265Z,5.28
2022-08-16T00:03:40.803Z,5.25
2022-08-16T00:06:07.457Z,4.72
2022-08-16T00:08:36.936Z,4.60
2022-08-16T00:11:04.907Z,4.97
2022-08-16T00:13:33.740Z,4.93
2022-08-16T00:17:11.414Z,5.70
2022-08-16T00:18:54.656Z,4.75
2022-08-16T00:21:20.983Z,5.07
2022-08-16T00:23:49.239Z,5.85
2022-08-16T00:26:35.446Z,4.55
2022-08-16T00:29:01.848Z,5.47
2022-08-16T00:31:59.398Z,5.30
2022-08-16T00:34:18.127Z,5.70
2022-08-16T00:36:47.915Z,5.85
2022-08-16T00:39:15.433Z,5.30
2022-08-16T00:41:43.595Z,5.68
2022-08-16T00:44:13.711Z,4.95
2022-08-16T00:46:52.908Z,6.55
2022-08-16T00:49:28.715Z,5.45
2022-08-16T00:52:05.632Z,6.57
2022-08-16T00:54:51.911Z,5.93
2022-08-16T00:57:18.454Z,6.50
2022-08-16T00:59:58.972Z,6.00
2022-08-16T01:02:31.619Z,6.30
2022-08-16T01:05:10.641Z,5.22
2022-08-16T01:07:51.218Z,6.55
2022-08-16T01:10:19.229Z,5.85
2022-08-16T01:12:45.686Z,5.43
2022-08-16T01:15:13.024Z,6.15
2022-08-16T01:17:40.413Z,6.13
2022-08-16T01:20:23.898Z,6.18
2022-08-16T01:23:09.711Z,6.80
2022-08-16T01:25:38.702Z,6.97
2022-08-16T01:28:07.787Z,6.30
2022-08-16T01:33:14.773Z,8.13
2022-08-16T01:35:57.090Z,6.72
2022-08-16T01:38:25.514Z,5.93
2022-08-16T01:40:54.228Z,6.80
2022-08-16T01:43:21.580Z,6.38
2022-08-16T01:45:57.914Z,5.78
2022-08-16T01:48:26.608Z,6.15
2022-08-16T01:51:09.423Z,5.25
2022-08-16T01:53:41.231Z,6.05
2022-08-16T01:56:08.903Z,5.72
2022-08-16T01:58:51.495Z,6.97
2022-08-16T02:01:18.078Z,6.47
2022-08-16T02:03:44.482Z,6.53
2022-08-16T02:06:17.336Z,7.35
2022-08-16T02:09:01.621Z,6.00
2022-08-16T02:11:28.301Z,6.65
2022-08-16T02:14:18.508Z,6.45
2022-08-16T02:16:48.090Z,6.78
2022-08-16T02:19:15.828Z,6.40
2022-08-16T02:22:08.634Z,5.65
2022-08-16T02:24:31.802Z,7.22
2022-08-16T02:26:58.709Z,6.15
2022-08-16T02:29:25.023Z,6.80
2022-08-16T02:32:03.347Z,6.22
2022-08-16T02:34:32.805Z,6.15
2022-08-16T02:37:01.305Z,6.00
2022-08-16T02:39:27.649Z,6.10
2022-08-16T02:41:56.734Z,6.17
2022-08-16T02:44:23.803Z,6.35
2022-08-16T02:46:53.695Z,5.43
2022-08-16T02:49:20.494Z,5.30
2022-08-16T02:51:46.798Z,5.70
2022-08-16T02:54:16.851Z,6.18
2022-08-16T02:56:43.403Z,6.35
2022-08-16T02:59:14.675Z,7.05
2022-08-16T03:01:41.628Z,5.80
2022-08-16T03:04:46.405Z,6.85
2022-08-16T03:06:56.715Z,7.05
2022-08-16T03:09:23.524Z,5.45
2022-08-16T03:11:50.240Z,6.32
2022-08-16T03:14:20.865Z,6.22
2022-08-16T03:16:59.898Z,5.28
2022-08-16T03:19:48.828Z,6.77
2022-08-16T03:22:27.822Z,6.03
2022-08-16T03:24:57.544Z,6.25
2022-08-16T03:27:24.393Z,5.38
2022-08-16T03:29:54.794Z,5.90
2022-08-16T03:34:49.850Z,5.18
2022-08-16T03:37:16.792Z,5.35
2022-08-16T03:39:43.518Z,5.68
2022-08-16T03:42:10.107Z,5.28
2022-08-16T03:44:44.293Z,6.13
2022-08-16T03:47:19.306Z,6.10
2022-08-16T03:49:47.955Z,5.20
2022-08-16T03:52:18.639Z,6.22
2022-08-16T03:54:52.961Z,6.00
2022-08-16T03:57:20.460Z,5.32
2022-08-16T03:59:47.051Z,5.10
2022-08-16T04:02:22.753Z,5.93
2022-08-16T04:04:58.100Z,5.65
2022-08-16T04:07:25.136Z,5.60
2022-08-16T04:09:52.075Z,6.82
2022-08-16T04:12:52.304Z,5.03
2022-08-16T04:15:07.155Z,5.10
2022-08-16T04:17:35.037Z,5.65
2022-08-16T04:20:07.528Z,6.47
2022-08-16T04:22:50.271Z,4.47
2022-08-16T04:25:16.894Z,4.97
2022-08-16T04:27:55.782Z,5.35
2022-08-16T04:30:32.247Z,4.50
2022-08-16T04:33:01.476Z,5.53
2022-08-16T04:35:34.241Z,5.68
2022-08-16T04:38:01.131Z,5.63
2022-08-16T04:40:37.550Z,6.03
2022-08-16T04:43:03.939Z,4.47
2022-08-16T04:45:35.700Z,4.30
2022-08-16T04:48:02.816Z,5.00
2022-08-16T04:50:30.564Z,4.57
2022-08-16T04:52:57.806Z,5.35
2022-08-16T04:55:31.768Z,4.75
2022-08-16T04:58:44.541Z,4.57
2022-08-16T05:00:51.352Z,4.72
2022-08-16T05:03:17.735Z,5.30
2022-08-16T05:05:59.195Z,7.20
2022-08-16T05:08:31.542Z,5.50
2022-08-16T05:11:00.316Z,4.53
2022-08-16T05:13:40.474Z,5.22
2022-08-16T05:16:12.031Z,4.90
2022-08-16T05:18:46.895Z,4.93
2022-08-16T05:21:13.503Z,5.90
2022-08-16T05:23:40.054Z,6.50
2022-08-16T05:26:06.467Z,6.03
2022-08-16T05:28:46.106Z,5.63
2022-08-16T05:31:12.469Z,5.53
2022-08-16T05:33:38.922Z,5.32
2022-08-16T05:38:39.293Z,5.75
2022-08-16T05:41:06.583Z,5.15
2022-08-16T05:43:43.683Z,5.55
2022-08-16T05:46:28.727Z,6.22
2022-08-16T05:49:00.237Z,5.82
2022-08-16T05:51:36.887Z,6.00
2022-08-16T05:54:05.846Z,5.20
2022-08-16T05:56:32.370Z,4.47
2022-08-16T05:59:00.607Z,4.95
2022-08-16T06:01:27.807Z,6.22
2022-08-16T06:03:59.257Z,4.57
2022-08-16T06:06:28.018Z,3.90
2022-08-16T06:08:55.487Z,4.00
2022-08-16T06:11:22.115Z,4.30
2022-08-16T06:16:18.798Z,3.42
2022-08-16T06:18:45.316Z,3.55
2022-08-16T06:21:14.641Z,4.97
2022-08-16T06:23:54.234Z,4.30
2022-08-16T06:26:21.109Z,3.08
2022-08-16T06:28:47.480Z,2.92
2022-08-16T06:31:14.317Z,3.60
2022-08-16T06:33:42.361Z,3.20
2022-08-16T06:36:13.847Z,3.67
2022-08-16T06:38:55.994Z,3.03
2022-08-16T06:41:23.461Z,3.72
2022-08-16T06:43:53.702Z,4.15
2022-08-16T06:46:32.095Z,3.63
2022-08-16T06:48:58.850Z,2.47
2022-08-16T06:51:25.145Z,4.18
2022-08-16T06:54:14.043Z,3.10
2022-08-16T06:56:40.866Z,3.28
2022-08-16T06:59:09.060Z,3.22
2022-08-16T07:01:44.987Z,3.22
2022-08-16T07:04:31.902Z,3.50
2022-08-16T07:07:00.137Z,5.18
2022-08-16T07:09:29.568Z,3.05
2022-08-16T07:11:56.776Z,4.68
2022-08-16T07:14:30.594Z,3.22
2022-08-16T07:17:00.351Z,2.60
2022-08-16T07:22:02.394Z,2.72
2022-08-16T07:24:31.353Z,3.75
2022-08-16T07:27:00.951Z,3.42
2022-08-16T07:31:53.691Z,3.08
2022-08-16T07:34:20.316Z,2.90
2022-08-16T07:37:04.384Z,4.10
2022-08-16T07:39:33.655Z,2.67
2022-08-16T07:42:00.483Z,3.72
2022-08-16T07:44:27.444Z,2.70
2022-08-16T07:47:13.719Z,3.20
2022-08-16T07:49:52.781Z,2.92
2022-08-16T07:52:20.370Z,3.15
2022-08-16T07:54:49.157Z,3.42
2022-08-16T07:57:19.880Z,2.58
2022-08-16T07:59:50.354Z,2.88
2022-08-16T08:02:20.584Z,2.42
2022-08-16T08:04:47.368Z,3.42
2022-08-16T08:07:14.638Z,2.80
2022-08-16T08:09:43.415Z,3.00
2022-08-16T08:12:10.276Z,2.22
2022-08-16T08:14:56.652Z,2.88
2022-08-16T08:17:23.067Z,2.35
2022-08-16T08:19:53.187Z,2.25
2022-08-16T08:22:22.155Z,2.35
2022-08-16T08:24:48.731Z,2.30
2022-08-16T08:27:22.604Z,2.50
2022-08-16T08:30:43.907Z,2.63
2022-08-16T08:32:58.806Z,2.58
2022-08-16T08:35:27.068Z,3.42
2022-08-16T08:37:56.488Z,1.92
2022-08-16T08:40:24.651Z,2.20
2022-08-16T08:42:57.788Z,1.80
2022-08-16T08:45:47.074Z,1.80
2022-08-16T08:48:33.048Z,2.38
2022-08-16T08:50:59.648Z,1.85
2022-08-16T08:53:30.662Z,2.05
2022-08-16T08:55:59.171Z,1.98
2022-08-16T08:58:25.953Z,1.33
2022-08-16T09:01:01.247Z,1.90
2022-08-16T09:03:28.050Z,1.80
2022-08-16T09:05:54.371Z,1.83
2022-08-16T09:08:22.182Z,1.73
2022-08-16T09:10:58.882Z,1.45
2022-08-16T09:13:28.818Z,2.33
2022-08-16T09:15:59.376Z,2.20
2022-08-16T09:18:27.249Z,1.70
2022-08-16T09:21:02.088Z,1.17
2022-08-16T09:23:29.302Z,1.67
2022-08-16T09:25:55.902Z,1.55
2022-08-16T09:29:16.200Z,2.10
2022-08-16T09:31:10.930Z,1.52
2022-08-16T09:33:39.609Z,1.88
2022-08-16T09:36:12.216Z,1.88
2022-08-16T09:38:53.953Z,1.48
2022-08-16T09:41:26.510Z,2.17
2022-08-16T09:43:59.735Z,1.40
2022-08-16T09:46:44.585Z,1.35
2022-08-16T09:49:12.772Z,1.13
2022-08-16T09:51:39.545Z,1.40
2022-08-16T09:54:09.438Z,1.40
2022-08-16T09:56:37.158Z,1.30
2022-08-16T09:59:07.981Z,1.15
2022-08-16T10:01:36.374Z,1.85
2022-08-16T10:04:04.153Z,1.23
2022-08-16T10:06:33.874Z,0.82
2022-08-16T10:09:06.067Z,0.97
2022-08-16T10:11:52.859Z,1.15
2022-08-16T10:14:24.533Z,1.55
2022-08-16T10:16:51.297Z,1.05
2022-08-16T10:19:26.577Z,1.63
2022-08-16T10:21:56.573Z,1.20
2022-08-16T10:24:28.310Z,1.05
2022-08-16T10:27:16.669Z,1.58
2022-08-16T10:30:00.143Z,1.10
2022-08-16T10:32:30.513Z,1.45
2022-08-16T10:34:59.220Z,1.35
2022-08-16T10:37:32.658Z,1.17
2022-08-16T10:40:28.277Z,1.10
2022-08-16T10:42:53.747Z,1.15
2022-08-16T10:45:20.451Z,1.08
2022-08-16T10:47:47.524Z,0.93
2022-08-16T10:50:28.532Z,0.90
2022-08-16T10:52:59.405Z,0.70
2022-08-16T10:58:12.706Z,1.20
2022-08-16T11:00:40.783Z,1.15
2022-08-16T11:03:43.211Z,0.80
2022-08-16T11:06:03.233Z,1.88
2022-08-16T11:08:36.229Z,1.10
2022-08-16T11:11:06.751Z,0.63
2022-08-16T11:16:26.333Z,1.27
2022-08-16T11:19:05.925Z,1.23
2022-08-16T11:22:22.465Z,0.90
2022-08-16T11:24:39.872Z,0.70
2022-08-16T11:27:32.817Z,0.90
2022-08-16T11:29:56.601Z,1.05
2022-08-16T11:32:29.937Z,0.82
2022-08-16T11:35:16.213Z,1.40
2022-08-16T11:40:34.278Z,1.13
2022-08-16T11:43:04.552Z,1.35
2022-08-16T11:45:33.601Z,1.27
2022-08-16T11:48:02.088Z,0.80
2022-08-16T11:50:28.515Z,1.00
2022-08-16T11:52:54.841Z,1.17
2022-08-16T11:55:21.155Z,1.13
2022-08-16T11:57:50.822Z,1.63
2022-08-16T12:00:33.866Z,1.77
2022-08-16T12:03:09.425Z,1.25
2022-08-16T12:05:38.101Z,0.70
2022-08-16T12:08:06.817Z,0.80
2022-08-16T12:10:33.721Z,0.82
2022-08-16T12:13:02.759Z,1.73
2022-08-16T12:15:29.345Z,0.63
2022-08-16T12:17:58.365Z,0.52
2022-08-16T12:20:27.515Z,0.88
2022-08-16T12:25:25.635Z,0.55
2022-08-16T12:27:53.147Z,1.27
2022-08-16T12:30:32.240Z,1.15
2022-08-16T12:33:03.110Z,0.65
2022-08-16T12:35:30.622Z,0.90
2022-08-16T12:37:58.291Z,1.03
2022-08-16T12:42:58.989Z,0.52
2022-08-16T12:45:27.315Z,0.70
2022-08-16T12:50:58.903Z,0.52
2022-08-16T12:53:31.935Z,0.50
2022-08-16T12:55:58.662Z,0.70
2022-08-16T12:58:48.301Z,1.58
2022-08-16T13:01:12.118Z,0.50
2022-08-16T13:03:40.553Z,1.00
2022-08-16T13:06:07.608Z,0.70
2022-08-16T13:08:34.075Z,0.60
2022-08-16T13:11:00.585Z,1.08
2022-08-16T13:13:29.519Z,0.93
2022-08-16T13:16:03.695Z,1.05
2022-08-16T13:18:34.791Z,0.68
2022-08-16T13:21:03.750Z,0.45
2022-08-16T13:23:30.622Z,0.73
2022-08-16T13:25:57.501Z,0.82
2022-08-16T13:28:24.181Z,0.30
2022-08-16T13:30:51.969Z,0.43
2022-08-16T13:33:24.761Z,0.85
2022-08-16T13:35:57.779Z,0.88
2022-08-16T13:38:25.910Z,0.63
2022-08-16T13:40:56.158Z,0.80
2022-08-16T13:43:23.345Z,0.80
2022-08-16T13:45:50.465Z,0.50
2022-08-16T13:48:21.855Z,0.80
2022-08-16T13:50:52.773Z,0.60
2022-08-16T13:53:19.295Z,0.80
2022-08-16T13:55:57.927Z,1.45
2022-08-16T13:58:36.916Z,0.80
2022-08-16T14:01:11.846Z,1.10
2022-08-16T14:03:41.277Z,1.10
2022-08-16T14:06:08.202Z,0.75
2022-08-16T14:08:37.801Z,1.08
2022-08-16T14:11:11.998Z,0.88
2022-08-16T14:13:39.097Z,1.13
2022-08-16T14:16:08.213Z,1.08
2022-08-16T14:18:49.678Z,1.08
2022-08-16T14:21:15.987Z,1.08
2022-08-16T14:23:44.628Z,1.15
2022-08-16T14:26:11.261Z,1.17
2022-08-16T14:28:37.574Z,0.90
2022-08-16T14:31:04.264Z,1.00
2022-08-16T14:33:32.923Z,1.20
2022-08-16T14:35:59.749Z,2.83
2022-08-16T14:38:37.455Z,1.10
2022-08-16T14:41:10.197Z,0.93
2022-08-16T14:43:37.148Z,1.23
2022-08-16T14:46:07.614Z,1.75
2022-08-16T14:48:34.203Z,2.05
2022-08-16T14:51:01.032Z,1.45
2022-08-16T14:53:28.037Z,2.25
2022-08-16T14:55:54.692Z,1.90
2022-08-16T14:58:28.482Z,1.65
2022-08-16T15:01:03.601Z,2.40
2022-08-16T15:03:30.310Z,2.20
2022-08-16T15:05:59.717Z,1.33
2022-08-16T15:08:36.183Z,1.58
2022-08-16T15:11:03.355Z,2.47
2022-08-16T15:13:30.736Z,2.35
2022-08-16T15:16:02.276Z,2.10
2022-08-16T15:18:31.911Z,2.38
2022-08-16T15:23:25.402Z,2.13
2022-08-16T15:26:03.141Z,2.00
2022-08-16T15:28:32.134Z,2.33
2022-08-16T15:31:03.039Z,1.75
2022-08-16T15:33:32.264Z,3.15
2022-08-16T15:35:59.417Z,2.25
2022-08-16T15:38:55.060Z,1.50
2022-08-16T15:41:32.479Z,1.88
2022-08-16T15:44:05.521Z,2.00
2022-08-16T15:46:55.074Z,1.95
2022-08-16T15:49:25.311Z,2.03
2022-08-16T15:52:05.196Z,1.77
2022-08-16T15:54:32.690Z,1.77
2022-08-16T15:57:11.387Z,1.63
2022-08-16T15:59:48.567Z,1.60
2022-08-16T16:02:19.458Z,3.90
2022-08-16T16:04:54.298Z,2.63
2022-08-16T16:07:20.757Z,2.08
2022-08-16T16:09:48.583Z,1.95
2022-08-16T16:12:42.012Z,2.45
2022-08-16T16:15:02.392Z,2.47
2022-08-16T16:17:28.918Z,1.77
2022-08-16T16:19:55.810Z,1.45
2022-08-16T16:22:22.168Z,1.40
2022-08-16T16:24:51.828Z,1.50
2022-08-16T16:27:18.134Z,1.48
2022-08-16T16:29:46.295Z,1.33
2022-08-16T16:32:17.231Z,1.30
2022-08-16T16:34:43.546Z,1.38
2022-08-16T16:37:10.253Z,1.60
2022-08-16T16:39:37.042Z,0.93
2022-08-16T16:42:04.794Z,1.38
2022-08-16T16:44:33.528Z,1.75
2022-08-16T16:47:00.339Z,1.05
2022-08-16T16:49:26.767Z,1.48
2022-08-16T16:51:55.102Z,1.05
2022-08-16T16:54:35.432Z,0.65
2022-08-16T16:57:02.264Z,0.60
2022-08-16T16:59:28.838Z,0.70
2022-08-16T17:01:57.662Z,0.73
2022-08-16T17:04:42.151Z,0.52
2022-08-16T17:07:10.957Z,1.33
2022-08-16T17:09:40.321Z,0.75
2022-08-16T17:12:07.655Z,1.25
2022-08-16T17:14:35.258Z,0.93
2022-08-16T17:17:07.018Z,0.50
2022-08-16T17:19:41.038Z,0.98
2022-08-16T17:24:56.390Z,0.43
2022-08-16T17:27:32.812Z,0.80
2022-08-16T17:30:01.123Z,0.40
2022-08-16T17:35:18.299Z,1.13
2022-08-16T17:37:50.828Z,0.80
2022-08-16T17:39:26.603Z,0.60
2022-08-16T17:39:28.389Z,0.93
2022-08-16T17:40:46.948Z,0.60
2022-08-16T17:43:05.615Z,1.15
2022-08-16T17:45:33.133Z,0.70
2022-08-16T17:47:59.512Z,1.70
2022-08-16T17:50:25.811Z,0.95
2022-08-16T17:52:54.882Z,2.13
2022-08-16T17:55:22.876Z,0.60
2022-08-16T17:57:49.344Z,1.17
2022-08-16T18:00:19.785Z,0.80
2022-08-16T18:02:47.226Z,1.13
2022-08-16T18:05:16.071Z,0.90
2022-08-16T18:10:09.695Z,0.63
2022-08-16T18:12:50.839Z,1.08
2022-08-16T18:15:23.326Z,0.70
2022-08-16T18:17:51.937Z,0.70
2022-08-16T18:20:37.516Z,0.98
2022-08-16T18:23:17.822Z,1.08
2022-08-16T18:25:48.426Z,2.03
2022-08-16T18:28:15.269Z,2.10
2022-08-16T18:30:41.682Z,1.10
2022-08-16T18:33:08.278Z,2.00
2022-08-16T18:35:34.666Z,1.42
2022-08-16T18:38:00.999Z,1.25
2022-08-16T18:40:27.383Z,1.70
2022-08-16T18:43:04.782Z,1.10
2022-08-16T18:45:35.102Z,1.20
2022-08-16T18:48:01.847Z,2.10
2022-08-16T18:50:28.235Z,1.88
2022-08-16T18:53:15.770Z,2.13
2022-08-16T18:55:45.182Z,2.15
2022-08-16T18:58:15.348Z,1.83
2022-08-16T19:00:56.731Z,1.95
2022-08-16T19:03:25.608Z,2.30
2022-08-16T19:05:55.959Z,1.95
2022-08-16T19:08:22.651Z,2.17
2022-08-16T19:10:49.827Z,2.30
2022-08-16T19:13:17.555Z,2.63
2022-08-16T19:15:44.550Z,3.00
2022-08-16T19:18:11.383Z,2.38
2022-08-16T19:20:38.463Z,1.73
2022-08-16T19:23:10.222Z,1.90
2022-08-16T19:25:49.077Z,3.58
2022-08-16T19:28:50.808Z,2.47
2022-08-16T19:31:26.163Z,2.45
2022-08-16T19:33:56.655Z,1.85
2022-08-16T19:36:32.064Z,2.17
2022-08-16T19:38:59.347Z,2.70
2022-08-16T19:41:31.934Z,2.22
2022-08-16T19:43:58.298Z,2.22
2022-08-16T19:46:24.634Z,3.25
2022-08-16T19:48:50.928Z,2.53
2022-08-16T19:51:17.243Z,2.65
2022-08-16T19:53:43.651Z,2.10
2022-08-16T19:56:10.030Z,2.83
2022-08-16T19:58:36.767Z,2.78
2022-08-16T20:01:03.075Z,3.13
2022-08-16T20:03:29.433Z,3.30
2022-08-16T20:05:56.592Z,3.08
2022-08-16T20:08:22.939Z,3.03
2022-08-16T20:10:50.454Z,3.05
2022-08-16T20:13:18.434Z,3.13
2022-08-16T20:15:45.477Z,3.10
2022-08-16T20:18:12.703Z,3.55
2022-08-16T20:20:50.741Z,2.90
2022-08-16T20:23:24.570Z,2.97
2022-08-16T20:25:52.551Z,3.65
2022-08-16T20:28:33.409Z,3.33
2022-08-16T20:31:05.745Z,3.25
2022-08-16T20:33:32.297Z,2.92
2022-08-16T20:35:58.634Z,2.72
2022-08-16T20:38:25.310Z,2.72
2022-08-16T20:40:51.706Z,3.33
2022-08-16T20:43:18.995Z,3.50
2022-08-16T20:45:46.090Z,3.45
2022-08-16T20:48:12.894Z,2.83
2022-08-16T20:50:39.531Z,3.17
2022-08-16T20:53:05.947Z,2.75
2022-08-16T20:55:33.933Z,2.63
2022-08-16T20:58:00.249Z,3.40
2022-08-16T21:00:28.879Z,3.45
2022-08-16T21:02:55.314Z,3.75
2022-08-16T21:05:24.030Z,3.38
2022-08-16T21:07:51.731Z,2.97
2022-08-16T21:10:19.648Z,3.35
2022-08-16T21:12:53.049Z,2.95
2022-08-16T21:15:19.983Z,4.05
2022-08-16T21:17:46.288Z,2.97
2022-08-16T21:20:12.641Z,3.42
2022-08-16T21:22:39.499Z,3.22
2022-08-16T21:25:06.612Z,3.08
2022-08-16T21:27:34.875Z,3.55
2022-08-16T21:30:25.066Z,2.97
2022-08-16T21:33:06.531Z,3.13
2022-08-16T21:35:32.918Z,2.58
2022-08-16T21:38:00.117Z,3.78
2022-08-16T21:40:45.669Z,3.45
2022-08-16T21:43:16.963Z,3.30
2022-08-16T21:45:44.405Z,3.33
2022-08-16T21:48:10.978Z,3.15
2022-08-16T21:50:38.026Z,3.65
2022-08-16T21:53:05.830Z,3.78
2022-08-16T21:55:32.184Z,3.53
2022-08-16T21:57:58.507Z,3.47
2022-08-16T22:00:25.170Z,3.22
2022-08-16T22:02:54.151Z,3.33
2022-08-16T22:05:20.856Z,4.30
2022-08-16T22:07:47.203Z,3.42
2022-08-16T22:11:06.735Z,3.83
2022-08-16T22:12:59.844Z,4.03
2022-08-16T22:15:26.231Z,4.22
2022-08-16T22:17:53.179Z,3.90
2022-08-16T22:20:20.209Z,3.78
2022-08-16T22:22:46.662Z,2.97
2022-08-16T22:25:14.199Z,4.45
2022-08-16T22:27:41.257Z,4.38
2022-08-16T22:30:09.893Z,3.08
2022-08-16T22:32:41.967Z,3.75
2022-08-16T22:35:10.976Z,4.15
2022-08-16T22:37:41.858Z,3.47
2022-08-16T22:40:28.148Z,3.33
2022-08-16T22:42:55.012Z,3.85
2022-08-16T22:45:23.203Z,5.80
2022-08-16T22:47:50.017Z,3.88
2022-08-16T22:50:16.342Z,4.25
2022-08-16T22:52:55.863Z,4.40
2022-08-16T22:55:26.038Z,3.88
2022-08-16T22:57:52.798Z,4.40
2022-08-16T23:00:20.425Z,3.92
2022-08-16T23:02:58.790Z,4.13
2022-08-16T23:05:26.002Z,4.50
2022-08-16T23:07:52.302Z,4.95
2022-08-16T23:10:19.579Z,4.20
2022-08-16T23:12:48.911Z,5.10
2022-08-16T23:15:16.964Z,4.45
2022-08-16T23:17:43.346Z,4.25
2022-08-16T23:20:10.745Z,4.28
2022-08-16T23:23:04.786Z,5.30
2022-08-16T23:25:36.052Z,5.10
2022-08-16T23:28:03.336Z,5.07
2022-08-16T23:30:30.931Z,4.85
2022-08-16T23:33:02.250Z,4.20
2022-08-16T23:35:44.944Z,3.97
2022-08-16T23:38:39.068Z,4.38
2022-08-16T23:41:00.510Z,3.63
2022-08-16T23:43:28.210Z,4.03
2022-08-16T23:45:56.266Z,4.60
2022-08-16T23:48:26.392Z,4.43
2022-08-16T23:50:54.223Z,3.63
2022-08-16T23:53:21.820Z,4.55
2022-08-16T23:55:49.654Z,4.80
2022-08-16T23:58:16.917Z,4.28
